Time;durP1;ratioP1;P1;durP2;ratioP2;P2;SDS_P1;SDS_P2;PMS_P1;PMS_P2;Temp;Humidity;BMP_temperature;BMP_pressure;BME280_temperature;BME280_humidity;BME280_pressure;Samples;Min_cycle;Max_cycle;Signal;HPM_P1;HPM_P2
2023/08/28 00:01:21;;;;;;;3.27;3.07;;;;;;;;;;6216220;23;20393;-59
2023/08/28 00:03:47;;;;;;;2.60;2.40;;;;;;;;;;6216198;23;20441;-59
2023/08/28 00:06:15;;;;;;;2.73;2.50;;;;;;;;;;6215985;23;20508;-59
2023/08/28 00:08:42;;;;;;;3.37;3.10;;;;;;;;;;6216333;23;20406;-58
2023/08/28 00:11:09;;;;;;;2.83;2.63;;;;;;;;;;6216250;23;20441;-58
2023/08/28 00:13:36;;;;;;;3.37;3.03;;;;;;;;;;6216259;23;20491;-59
2023/08/28 00:16:04;;;;;;;2.73;2.63;;;;;;;;;;6216387;23;20798;-59
2023/08/28 00:18:31;;;;;;;2.40;2.30;;;;;;;;;;6216177;23;20404;-59
2023/08/28 00:20:58;;;;;;;2.60;2.50;;;;;;;;;;6215823;23;20928;-59
2023/08/28 00:23:25;;;;;;;3.10;2.33;;;;;;;;;;6216208;23;20447;-58
2023/08/28 00:25:52;;;;;;;2.40;2.17;;;;;;;;;;6216223;23;20527;-59
2023/08/28 00:28:19;;;;;;;2.80;2.60;;;;;;;;;;6215841;23;20509;-59
2023/08/28 00:30:46;;;;;;;3.10;2.80;;;;;;;;;;6216203;23;20504;-59
2023/08/28 00:33:14;;;;;;;2.70;2.50;;;;;;;;;;6215814;23;20947;-59
2023/08/28 00:35:42;;;;;;;2.50;2.40;;;;;;;;;;6216061;23;20437;-58
2023/08/28 00:38:09;;;;;;;2.90;2.60;;;;;;;;;;6216009;23;20492;-59
2023/08/28 00:40:40;;;;;;;2.27;2.17;;;;;;;;;;6216103;23;20487;-59
2023/08/28 00:43:06;;;;;;;2.40;2.20;;;;;;;;;;6225882;23;20386;-58
2023/08/28 00:45:34;;;;;;;2.37;2.27;;;;;;;;;;6215888;23;20448;-58
2023/08/28 00:48:01;;;;;;;2.40;2.20;;;;;;;;;;6215889;23;20401;-59
2023/08/28 00:50:30;;;;;;;5.13;2.60;;;;;;;;;;6215313;23;20460;-58
2023/08/28 00:52:57;;;;;;;2.20;2.00;;;;;;;;;;6215703;23;20884;-58
2023/08/28 00:55:24;;;;;;;2.10;1.77;;;;;;;;;;6216212;23;20501;-59
2023/08/28 00:57:51;;;;;;;1.80;1.70;;;;;;;;;;6215862;23;20487;-58
2023/08/28 01:00:18;;;;;;;3.60;1.73;;;;;;;;;;6215861;23;20491;-59
2023/08/28 01:02:45;;;;;;;1.80;1.70;;;;;;;;;;6215806;23;20444;-58
2023/08/28 01:05:12;;;;;;;1.87;1.77;;;;;;;;;;6215633;23;21023;-58
2023/08/28 01:07:46;;;;;;;2.87;2.07;;;;;;;;;;6215469;23;20433;-58
2023/08/28 01:10:15;;;;;;;1.87;1.77;;;;;;;;;;6225353;23;20480;-58
2023/08/28 01:12:44;;;;;;;1.80;1.70;;;;;;;;;;6215363;23;20437;-58
2023/08/28 01:15:13;;;;;;;1.77;1.67;;;;;;;;;;6215537;23;20412;-58
2023/08/28 01:17:41;;;;;;;2.23;1.70;;;;;;;;;;6215526;23;20412;-58
2023/08/28 01:20:11;;;;;;;1.97;1.70;;;;;;;;;;6215595;23;20451;-59
2023/08/28 01:22:44;;;;;;;1.43;1.33;;;;;;;;;;6225410;23;20413;-59
2023/08/28 01:25:12;;;;;;;2.40;1.70;;;;;;;;;;6225345;23;20817;-59
2023/08/28 01:27:40;;;;;;;2.07;1.97;;;;;;;;;;6215529;23;20721;-58
2023/08/28 01:30:08;;;;;;;1.73;1.50;;;;;;;;;;6215518;23;20411;-61
2023/08/28 01:32:35;;;;;;;1.90;1.80;;;;;;;;;;6215314;23;20405;-58
2023/08/28 01:35:02;;;;;;;1.70;1.60;;;;;;;;;;6215213;23;20548;-59
2023/08/28 01:37:34;;;;;;;1.60;1.40;;;;;;;;;;6214971;23;20435;-59
2023/08/28 01:40:05;;;;;;;2.10;2.00;;;;;;;;;;6225463;23;20389;-58
2023/08/28 01:42:34;;;;;;;1.80;1.70;;;;;;;;;;6225245;23;20400;-58
2023/08/28 01:45:02;;;;;;;2.90;1.43;;;;;;;;;;6215141;23;20468;-58
2023/08/28 01:47:29;;;;;;;1.77;1.47;;;;;;;;;;6215338;23;20492;-59
2023/08/28 01:49:56;;;;;;;1.50;1.40;;;;;;;;;;6215062;23;20508;-59
2023/08/28 01:52:23;;;;;;;1.93;1.70;;;;;;;;;;6214975;23;20897;-59
2023/08/28 01:54:50;;;;;;;1.37;1.27;;;;;;;;;;6215408;23;20960;-58
2023/08/28 01:57:16;;;;;;;1.67;1.27;;;;;;;;;;6215371;23;20491;-58
2023/08/28 01:59:45;;;;;;;1.77;1.30;;;;;;;;;;6215332;23;20406;-58
2023/08/28 02:02:12;;;;;;;1.50;1.40;;;;;;;;;;6215197;23;20788;-58
2023/08/28 02:04:39;;;;;;;1.10;1.00;;;;;;;;;;6215228;23;20508;-59
2023/08/28 02:07:06;;;;;;;2.27;1.50;;;;;;;;;;6215239;23;20408;-58
2023/08/28 02:09:33;;;;;;;1.50;1.40;;;;;;;;;;6214920;23;20465;-58
2023/08/28 02:12:00;;;;;;;1.50;1.40;;;;;;;;;;6215379;23;20499;-59
2023/08/28 02:14:27;;;;;;;1.53;1.30;;;;;;;;;;6215033;23;20405;-59
2023/08/28 02:16:55;;;;;;;1.30;1.20;;;;;;;;;;6214778;23;20431;-58
2023/08/28 02:19:22;;;;;;;1.40;1.30;;;;;;;;;;6215123;23;20846;-58
2023/08/28 02:21:49;;;;;;;1.37;1.27;;;;;;;;;;6215063;23;20472;-58
2023/08/28 02:24:16;;;;;;;1.50;1.40;;;;;;;;;;6215106;23;20722;-59
2023/08/28 02:26:43;;;;;;;1.30;1.20;;;;;;;;;;6214770;23;20444;-58
2023/08/28 02:29:10;;;;;;;1.37;1.27;;;;;;;;;;6215158;23;20463;-58
2023/08/28 02:31:37;;;;;;;1.30;1.20;;;;;;;;;;6215154;23;20459;-59
2023/08/28 02:34:06;;;;;;;1.80;1.20;;;;;;;;;;6215123;23;20904;-58
2023/08/28 02:36:32;;;;;;;1.20;1.10;;;;;;;;;;6214937;23;20416;-58
2023/08/28 02:39:00;;;;;;;1.30;1.20;;;;;;;;;;6215057;23;20488;-59
2023/08/28 02:41:27;;;;;;;1.60;1.50;;;;;;;;;;6215052;23;20416;-58
2023/08/28 02:43:54;;;;;;;1.37;1.27;;;;;;;;;;6224593;23;20405;-59
2023/08/28 02:46:21;;;;;;;1.30;1.20;;;;;;;;;;6214862;23;20440;-59
2023/08/28 02:48:48;;;;;;;1.30;1.07;;;;;;;;;;6214926;23;20493;-58
2023/08/28 02:51:16;;;;;;;1.70;1.60;;;;;;;;;;6214691;23;20816;-59
2023/08/28 02:53:43;;;;;;;1.93;1.60;;;;;;;;;;6214875;23;20405;-58
2023/08/28 02:56:10;;;;;;;1.60;1.50;;;;;;;;;;6215086;23;20711;-59
2023/08/28 02:58:37;;;;;;;1.90;1.43;;;;;;;;;;6214973;23;20500;-59
2023/08/28 03:01:04;;;;;;;1.70;1.53;;;;;;;;;;6215037;23;20488;-58
2023/08/28 03:03:33;;;;;;;1.47;1.37;;;;;;;;;;6214580;23;20939;-58
2023/08/28 03:06:01;;;;;;;1.93;1.80;;;;;;;;;;6214368;23;20516;-58
2023/08/28 03:08:29;;;;;;;1.60;1.50;;;;;;;;;;6215004;23;20439;-58
2023/08/28 03:10:56;;;;;;;2.77;1.70;;;;;;;;;;6214921;23;20508;-59
2023/08/28 03:13:23;;;;;;;2.63;1.43;;;;;;;;;;6214915;23;20480;-58
2023/08/28 03:15:50;;;;;;;2.30;1.73;;;;;;;;;;6214626;23;20592;-58
2023/08/28 03:18:17;;;;;;;2.10;1.57;;;;;;;;;;6215060;23;20497;-58
2023/08/28 03:20:44;;;;;;;4.80;2.10;;;;;;;;;;6214527;23;20951;-59
2023/08/28 03:23:11;;;;;;;2.23;1.70;;;;;;;;;;6215072;23;20432;-59
2023/08/28 03:25:39;;;;;;;1.67;1.57;;;;;;;;;;6214677;23;20429;-58
2023/08/28 03:28:07;;;;;;;1.50;1.40;;;;;;;;;;6214671;23;20447;-59
2023/08/28 03:30:34;;;;;;;1.43;1.33;;;;;;;;;;6214822;23;20484;-58
2023/08/28 03:33:01;;;;;;;1.33;1.23;;;;;;;;;;6214799;23;20440;-58
2023/08/28 03:35:29;;;;;;;2.60;2.00;;;;;;;;;;6215967;23;20957;-58
2023/08/28 03:37:56;;;;;;;1.70;1.60;;;;;;;;;;6216489;23;20401;-58
2023/08/28 03:40:23;;;;;;;2.63;1.60;;;;;;;;;;6216678;23;20782;-58
2023/08/28 03:42:51;;;;;;;1.77;1.67;;;;;;;;;;6216723;23;20484;-58
2023/08/28 03:45:18;;;;;;;1.90;1.80;;;;;;;;;;6216436;23;20520;-58
2023/08/28 03:47:45;;;;;;;1.73;1.63;;;;;;;;;;6216533;23;20445;-58
2023/08/28 03:50:12;;;;;;;1.67;1.57;;;;;;;;;;6216397;23;20456;-59
2023/08/28 03:52:39;;;;;;;2.10;1.70;;;;;;;;;;6216468;23;20812;-58
2023/08/28 03:55:06;;;;;;;1.40;1.30;;;;;;;;;;6216412;23;20493;-58
2023/08/28 03:57:34;;;;;;;1.50;1.40;;;;;;;;;;6216530;23;20786;-58
2023/08/28 04:00:05;;;;;;;1.60;1.50;;;;;;;;;;6216415;23;20470;-58
2023/08/28 04:02:32;;;;;;;1.50;1.40;;;;;;;;;;6226361;23;20389;-58
2023/08/28 04:05:02;;;;;;;1.77;1.53;;;;;;;;;;6216291;23;20444;-59
2023/08/28 04:07:29;;;;;;;2.93;2.00;;;;;;;;;;6226290;23;20408;-59
2023/08/28 04:09:56;;;;;;;3.17;1.77;;;;;;;;;;6216308;23;20514;-58
2023/08/28 04:12:23;;;;;;;2.27;1.53;;;;;;;;;;6216390;23;20545;-58
2023/08/28 04:14:50;;;;;;;1.83;1.73;;;;;;;;;;6215886;23;20974;-58
2023/08/28 04:17:18;;;;;;;1.60;1.50;;;;;;;;;;6216225;23;20880;-58
2023/08/28 04:19:45;;;;;;;1.80;1.70;;;;;;;;;;6216426;23;20437;-58
2023/08/28 04:22:12;;;;;;;1.77;1.67;;;;;;;;;;6216254;23;20492;-58
2023/08/28 04:24:39;;;;;;;2.57;1.70;;;;;;;;;;6216122;23;20488;-58
2023/08/28 04:27:06;;;;;;;2.10;1.73;;;;;;;;;;6216026;23;20520;-58
2023/08/28 04:29:33;;;;;;;1.93;1.83;;;;;;;;;;6216421;23;20492;-58
2023/08/28 04:32:00;;;;;;;3.43;2.43;;;;;;;;;;6216213;23;20440;-58
2023/08/28 04:34:28;;;;;;;1.60;1.50;;;;;;;;;;6216138;23;20799;-58
2023/08/28 04:36:55;;;;;;;1.90;1.70;;;;;;;;;;6216002;23;20441;-58
2023/08/28 04:39:23;;;;;;;1.50;1.40;;;;;;;;;;6216240;23;20780;-58
2023/08/28 04:41:50;;;;;;;2.00;1.67;;;;;;;;;;6215827;23;20405;-58
2023/08/28 04:44:16;;;;;;;1.73;1.63;;;;;;;;;;6215878;23;20405;-58
2023/08/28 04:46:43;;;;;;;2.23;1.90;;;;;;;;;;6215626;23;20825;-59
2023/08/28 04:49:10;;;;;;;1.87;1.77;;;;;;;;;;6215850;23;20492;-59
2023/08/28 04:51:39;;;;;;;2.37;2.17;;;;;;;;;;6215927;23;20409;-58
2023/08/28 04:54:06;;;;;;;1.80;1.70;;;;;;;;;;6215790;23;20721;-58
2023/08/28 04:56:33;;;;;;;2.67;2.47;;;;;;;;;;6215874;23;20440;-58
2023/08/28 04:59:00;;;;;;;1.77;1.67;;;;;;;;;;6215724;23;20500;-59
2023/08/28 05:01:27;;;;;;;2.03;1.93;;;;;;;;;;6215751;23;20405;-58
2023/08/28 05:03:54;;;;;;;1.80;1.50;;;;;;;;;;6215755;23;20451;-58
2023/08/28 05:06:20;;;;;;;1.80;1.70;;;;;;;;;;6215786;23;20527;-58
2023/08/28 05:08:49;;;;;;;1.93;1.83;;;;;;;;;;6215802;23;20666;-58
2023/08/28 05:11:16;;;;;;;3.30;3.00;;;;;;;;;;6215453;23;20489;-58
2023/08/28 05:13:43;;;;;;;2.30;2.17;;;;;;;;;;6215735;23;20963;-58
2023/08/28 05:16:09;;;;;;;1.80;1.70;;;;;;;;;;6215587;23;20424;-59
2023/08/28 05:18:36;;;;;;;2.27;2.00;;;;;;;;;;6215549;23;20794;-58
2023/08/28 05:21:03;;;;;;;3.43;2.47;;;;;;;;;;6215773;23;20484;-58
2023/08/28 05:23:30;;;;;;;2.17;1.93;;;;;;;;;;6215793;23;20488;-58
2023/08/28 05:25:58;;;;;;;3.80;1.93;;;;;;;;;;6215502;23;20826;-59
2023/08/28 05:28:25;;;;;;;2.20;2.00;;;;;;;;;;6215443;23;20491;-59
2023/08/28 05:30:52;;;;;;;2.17;1.90;;;;;;;;;;6215620;23;20433;-58
2023/08/28 05:33:19;;;;;;;1.97;1.87;;;;;;;;;;6215537;23;20493;-58
2023/08/28 05:35:46;;;;;;;2.40;2.30;;;;;;;;;;6215314;23;20405;-58
2023/08/28 05:38:13;;;;;;;2.40;2.20;;;;;;;;;;6215024;23;20943;-58
2023/08/28 05:40:40;;;;;;;3.40;2.03;;;;;;;;;;6215144;23;20443;-59
2023/08/28 05:43:08;;;;;;;1.80;1.70;;;;;;;;;;6215281;23;20405;-59
2023/08/28 05:45:35;;;;;;;3.50;2.20;;;;;;;;;;6215316;23;20412;-59
2023/08/28 05:48:01;;;;;;;3.10;2.00;;;;;;;;;;6214807;23;20905;-58
2023/08/28 05:50:28;;;;;;;2.63;2.47;;;;;;;;;;6215189;23;20758;-58
2023/08/28 05:52:55;;;;;;;3.50;2.33;;;;;;;;;;6215244;23;20484;-58
2023/08/28 05:55:22;;;;;;;2.13;2.03;;;;;;;;;;6215357;23;20496;-59
2023/08/28 05:57:49;;;;;;;2.40;2.20;;;;;;;;;;6214847;23;20491;-59
2023/08/28 06:00:18;;;;;;;3.83;2.20;;;;;;;;;;6215218;23;20405;-59
2023/08/28 06:02:45;;;;;;;1.80;1.70;;;;;;;;;;6214900;23;20493;-58
2023/08/28 06:05:12;;;;;;;1.73;1.63;;;;;;;;;;6215304;23;20405;-59
2023/08/28 06:07:39;;;;;;;2.20;1.90;;;;;;;;;;6215398;23;20449;-59
2023/08/28 06:10:07;;;;;;;2.43;2.00;;;;;;;;;;6224406;23;20413;-59
2023/08/28 06:12:34;;;;;;;2.00;1.90;;;;;;;;;;6215195;23;20405;-58
2023/08/28 06:15:01;;;;;;;2.33;2.13;;;;;;;;;;6215226;23;20500;-59
2023/08/28 06:17:29;;;;;;;1.60;1.50;;;;;;;;;;6215175;23;20412;-58
2023/08/28 06:19:56;;;;;;;2.70;1.97;;;;;;;;;;6215214;23;20812;-58
2023/08/28 06:22:23;;;;;;;1.90;1.50;;;;;;;;;;6214787;23;20509;-58
2023/08/28 06:24:52;;;;;;;2.90;1.67;;;;;;;;;;6224821;23;20425;-58
2023/08/28 06:27:19;;;;;;;2.20;2.00;;;;;;;;;;6214744;23;20441;-58
2023/08/28 06:29:46;;;;;;;2.70;1.90;;;;;;;;;;6215179;23;20432;-58
2023/08/28 06:32:13;;;;;;;2.57;2.37;;;;;;;;;;6215062;23;20433;-58
2023/08/28 06:34:41;;;;;;;3.10;2.20;;;;;;;;;;6215111;23;20487;-57
2023/08/28 06:37:08;;;;;;;3.53;2.30;;;;;;;;;;6214750;23;20683;-58
2023/08/28 06:39:35;;;;;;;2.67;2.03;;;;;;;;;;6215160;23;20631;-58
2023/08/28 06:42:02;;;;;;;4.80;1.77;;;;;;;;;;6215778;23;20444;-58
2023/08/28 06:44:29;;;;;;;2.43;2.23;;;;;;;;;;6215007;23;20432;-58
2023/08/28 06:46:56;;;;;;;2.50;2.30;;;;;;;;;;6215001;23;20524;-58
2023/08/28 06:49:22;;;;;;;1.97;1.83;;;;;;;;;;6214835;23;20459;-58
2023/08/28 06:51:51;;;;;;;3.80;2.20;;;;;;;;;;6225015;23;20402;-58
2023/08/28 06:54:18;;;;;;;2.53;2.10;;;;;;;;;;6214945;23;20497;-57
2023/08/28 06:56:45;;;;;;;4.90;2.27;;;;;;;;;;6214862;23;20492;-58
2023/08/28 06:59:11;;;;;;;3.70;1.97;;;;;;;;;;6214366;23;20917;-58
2023/08/28 07:01:38;;;;;;;2.17;1.97;;;;;;;;;;6214591;23;20444;-61
2023/08/28 07:04:06;;;;;;;2.40;2.23;;;;;;;;;;6214833;23;20790;-59
2023/08/28 07:06:33;;;;;;;2.00;1.80;;;;;;;;;;6214614;23;20512;-60
2023/08/28 07:09:01;;;;;;;3.10;1.60;;;;;;;;;;6216006;23;20427;-59
2023/08/28 07:11:28;;;;;;;2.30;1.90;;;;;;;;;;6216524;23;20404;-59
2023/08/28 07:13:55;;;;;;;3.57;2.20;;;;;;;;;;6217077;23;20483;-60
2023/08/28 07:16:22;;;;;;;1.97;1.77;;;;;;;;;;6216707;23;20420;-58
2023/08/28 07:18:49;;;;;;;2.60;1.83;;;;;;;;;;6216672;23;20578;-59
2023/08/28 07:21:16;;;;;;;1.93;1.67;;;;;;;;;;6216747;23;20413;-62
2023/08/28 07:23:43;;;;;;;1.83;1.73;;;;;;;;;;6216699;23;20411;-60
2023/08/28 07:26:11;;;;;;;2.53;1.70;;;;;;;;;;6216640;23;20758;-60
2023/08/28 07:28:38;;;;;;;1.93;1.50;;;;;;;;;;6216707;23;20488;-59
2023/08/28 07:31:05;;;;;;;1.50;1.40;;;;;;;;;;6216642;23;20428;-57
2023/08/28 07:33:32;;;;;;;2.70;1.77;;;;;;;;;;6216686;23;20484;-59
2023/08/28 07:35:59;;;;;;;1.47;1.37;;;;;;;;;;6216486;23;20412;-61
2023/08/28 07:38:26;;;;;;;1.40;1.30;;;;;;;;;;6216639;23;20546;-59
2023/08/28 07:40:53;;;;;;;4.70;2.30;;;;;;;;;;6216253;23;20475;-59
2023/08/28 07:43:21;;;;;;;2.20;1.50;;;;;;;;;;6216183;23;20899;-59
2023/08/28 07:45:48;;;;;;;1.70;1.60;;;;;;;;;;6216426;23;20480;-60
2023/08/28 07:48:15;;;;;;;2.00;1.60;;;;;;;;;;6216569;23;20527;-62
2023/08/28 07:50:42;;;;;;;2.30;1.70;;;;;;;;;;6216021;23;20429;-60
2023/08/28 07:53:09;;;;;;;1.70;1.27;;;;;;;;;;6216189;23;20911;-59
2023/08/28 07:55:37;;;;;;;2.20;1.43;;;;;;;;;;6216590;23;20463;-61
2023/08/28 07:58:04;;;;;;;1.57;1.27;;;;;;;;;;6215955;23;20401;-59
2023/08/28 08:00:34;;;;;;;3.00;1.43;;;;;;;;;;6216376;23;20412;-61
2023/08/28 08:03:03;;;;;;;1.70;1.40;;;;;;;;;;6226171;23;20740;-61
2023/08/28 08:05:30;;;;;;;1.43;1.00;;;;;;;;;;6216113;23;20401;-61
2023/08/28 08:07:57;;;;;;;3.10;1.13;;;;;;;;;;6216251;23;20444;-61
2023/08/28 08:10:24;;;;;;;2.77;1.33;;;;;;;;;;6216363;23;20432;-62
2023/08/28 08:12:51;;;;;;;1.63;1.23;;;;;;;;;;6216109;23;20480;-62
2023/08/28 08:15:18;;;;;;;2.70;1.30;;;;;;;;;;6215956;23;20897;-62
2023/08/28 08:17:46;;;;;;;1.20;1.10;;;;;;;;;;6216120;23;20492;-61
2023/08/28 08:20:15;;;;;;;1.13;1.03;;;;;;;;;;6215827;23;20488;-61
2023/08/28 08:22:43;;;;;;;1.60;1.20;;;;;;;;;;6215872;23;20912;-61
2023/08/28 08:25:10;;;;;;;1.40;1.23;;;;;;;;;;6215813;23;20901;-60
2023/08/28 08:27:38;;;;;;;2.00;1.10;;;;;;;;;;6215700;23;20487;-61
2023/08/28 08:30:07;;;;;;;3.57;1.10;;;;;;;;;;6215638;23;20863;-61
2023/08/28 08:32:33;;;;;;;4.90;1.13;;;;;;;;;;6216110;23;20409;-61
2023/08/28 08:35:02;;;;;;;1.40;1.00;;;;;;;;;;6216172;23;20504;-61
2023/08/28 08:37:29;;;;;;;2.40;1.20;;;;;;;;;;6215960;23;20487;-61
2023/08/28 08:39:56;;;;;;;2.63;1.10;;;;;;;;;;6216149;23;20504;-60
2023/08/28 08:42:23;;;;;;;1.70;0.80;;;;;;;;;;6216042;23;20778;-61
2023/08/28 08:44:49;;;;;;;1.17;0.90;;;;;;;;;;6216044;23;20458;-62
2023/08/28 08:47:16;;;;;;;2.33;1.10;;;;;;;;;;6215957;23;20437;-61
2023/08/28 08:49:44;;;;;;;2.60;1.00;;;;;;;;;;6215564;23;20533;-63
2023/08/28 08:52:14;;;;;;;2.07;1.27;;;;;;;;;;6225824;23;20425;-61
2023/08/28 08:54:41;;;;;;;1.47;1.20;;;;;;;;;;6225546;23;20394;-63
2023/08/28 08:57:10;;;;;;;1.47;1.00;;;;;;;;;;6215895;23;20713;-61
2023/08/28 08:59:37;;;;;;;1.70;1.37;;;;;;;;;;6215887;23;20436;-60
2023/08/28 09:02:04;;;;;;;1.23;0.90;;;;;;;;;;6215996;23;20782;-60
2023/08/28 09:04:32;;;;;;;1.57;0.97;;;;;;;;;;6215773;23;20405;-61
2023/08/28 09:06:59;;;;;;;1.23;1.10;;;;;;;;;;6215654;23;20753;-65
2023/08/28 09:09:27;;;;;;;1.37;1.00;;;;;;;;;;6215784;23;20405;-65
2023/08/28 09:11:54;;;;;;;4.40;1.27;;;;;;;;;;6215564;23;20725;-64
2023/08/28 09:14:21;;;;;;;1.10;1.00;;;;;;;;;;6215761;23;20491;-62
2023/08/28 09:16:48;;;;;;;3.63;1.00;;;;;;;;;;6215833;23;20727;-66
2023/08/28 09:19:15;;;;;;;1.10;1.00;;;;;;;;;;6215511;23;20446;-59
2023/08/28 09:21:46;;;;;;;3.00;1.20;;;;;;;;;;6215672;23;20405;-60
2023/08/28 09:24:13;;;;;;;2.50;1.10;;;;;;;;;;6225384;23;20393;-63
2023/08/28 09:26:51;;;;;;;1.10;1.00;;;;;;;;;;6215402;23;20436;-65
2023/08/28 09:29:21;;;;;;;1.90;1.20;;;;;;;;;;6225371;23;20424;-64
2023/08/28 09:31:49;;;;;;;2.20;1.00;;;;;;;;;;6215153;23;20488;-63
2023/08/28 09:34:16;;;;;;;3.87;1.00;;;;;;;;;;6215497;23;20433;-62
2023/08/28 09:36:43;;;;;;;1.73;1.20;;;;;;;;;;6215488;23;20432;-65
2023/08/28 09:39:11;;;;;;;2.70;1.00;;;;;;;;;;6215256;23;20703;-62
2023/08/28 09:41:44;;;;;;;1.53;1.00;;;;;;;;;;6215020;23;20479;-63
2023/08/28 09:44:11;;;;;;;2.20;1.00;;;;;;;;;;6214962;23;20416;-65
2023/08/28 09:46:38;;;;;;;1.20;1.10;;;;;;;;;;6215454;23;20496;-65
2023/08/28 09:49:05;;;;;;;2.37;1.10;;;;;;;;;;6215502;23;20476;-63
2023/08/28 09:51:39;;;;;;;1.20;1.10;;;;;;;;;;6214878;23;20761;-68
2023/08/28 09:54:06;;;;;;;2.70;1.10;;;;;;;;;;6213062;23;21128;-64
2023/08/28 09:56:33;;;;;;;2.00;1.10;;;;;;;;;;6222423;23;20401;-60
2023/08/28 09:59:03;;;;;;;1.23;1.10;;;;;;;;;;6213726;23;20435;-62
2023/08/28 10:01:31;;;;;;;1.50;1.23;;;;;;;;;;6214002;23;20416;-64
2023/08/28 10:03:58;;;;;;;2.10;1.00;;;;;;;;;;6213778;23;20405;-71
2023/08/28 10:06:26;;;;;;;1.43;1.33;;;;;;;;;;6213974;23;20456;-62
2023/08/28 10:08:55;;;;;;;1.77;1.10;;;;;;;;;;6214697;23;20535;-60
2023/08/28 10:11:22;;;;;;;1.00;0.90;;;;;;;;;;6214954;23;20425;-62
2023/08/28 10:13:50;;;;;;;1.53;1.23;;;;;;;;;;6212887;23;20492;-64
2023/08/28 10:16:21;;;;;;;2.30;1.40;;;;;;;;;;6215246;23;20440;-63
2023/08/28 10:18:51;;;;;;;1.23;1.13;;;;;;;;;;6225235;23;20404;-60
2023/08/28 10:21:18;;;;;;;2.10;1.20;;;;;;;;;;6214672;23;20856;-61
2023/08/28 10:23:46;;;;;;;2.90;1.13;;;;;;;;;;6215003;23;20444;-62
2023/08/28 10:26:14;;;;;;;1.40;1.10;;;;;;;;;;6215080;23;20495;-63
2023/08/28 10:28:41;;;;;;;2.17;1.10;;;;;;;;;;6214997;23;20468;-64
2023/08/28 10:31:08;;;;;;;2.97;1.63;;;;;;;;;;6215141;23;20412;-63
2023/08/28 10:33:37;;;;;;;1.77;1.57;;;;;;;;;;6214930;23;20440;-66
2023/08/28 10:36:09;;;;;;;1.27;1.17;;;;;;;;;;6215061;23;20409;-67
2023/08/28 10:38:36;;;;;;;2.97;1.10;;;;;;;;;;6225049;23;20400;-63
2023/08/28 10:41:03;;;;;;;1.73;1.10;;;;;;;;;;6214386;23;20947;-64
2023/08/28 10:43:31;;;;;;;1.50;1.40;;;;;;;;;;6215683;23;20470;-65
2023/08/28 10:46:01;;;;;;;1.30;1.10;;;;;;;;;;6226509;23;20409;-61
2023/08/28 10:48:30;;;;;;;2.23;1.10;;;;;;;;;;6226853;23;20471;-64
2023/08/28 10:50:58;;;;;;;1.07;0.87;;;;;;;;;;6216290;23;20471;-64
2023/08/28 10:53:26;;;;;;;1.80;1.10;;;;;;;;;;6216818;23;20496;-66
2023/08/28 10:55:53;;;;;;;1.10;1.00;;;;;;;;;;6215121;23;20420;-66
2023/08/28 10:58:20;;;;;;;2.13;1.30;;;;;;;;;;6216546;23;20416;-66
2023/08/28 11:00:47;;;;;;;1.47;1.37;;;;;;;;;;6216493;23;20440;-62
2023/08/28 11:03:15;;;;;;;2.23;1.00;;;;;;;;;;6216643;23;20405;-65
2023/08/28 11:05:42;;;;;;;2.40;1.23;;;;;;;;;;6216661;23;20439;-61
2023/08/28 11:08:11;;;;;;;1.30;1.17;;;;;;;;;;6216427;23;20825;-62
2023/08/28 11:10:39;;;;;;;2.33;0.93;;;;;;;;;;6216642;23;20547;-63
2023/08/28 11:13:06;;;;;;;2.03;0.97;;;;;;;;;;6216393;23;20405;-61
2023/08/28 11:15:34;;;;;;;3.13;1.03;;;;;;;;;;6216879;23;20492;-60
2023/08/28 11:18:19;;;;;;;3.07;1.53;;;;;;;;;;6216407;23;20440;-66
2023/08/28 11:20:47;;;;;;;1.53;1.20;;;;;;;;;;6216710;23;20480;-59
2023/08/28 11:23:21;;;;;;;3.10;1.13;;;;;;;;;;6216450;23;20405;-63
2023/08/28 11:25:48;;;;;;;1.00;1.00;;;;;;;;;;6226697;23;20420;-63
2023/08/28 11:28:25;;;;;;;1.67;1.00;;;;;;;;;;6216620;23;20515;-62
2023/08/28 11:30:52;;;;;;;1.07;0.80;;;;;;;;;;6215922;23;20405;-61
2023/08/28 11:33:20;;;;;;;1.10;0.90;;;;;;;;;;6216780;23;20892;-60
2023/08/28 11:35:46;;;;;;;1.73;1.00;;;;;;;;;;6216806;23;20500;-62
2023/08/28 11:38:14;;;;;;;3.20;1.13;;;;;;;;;;6216570;23;20725;-61
2023/08/28 11:40:42;;;;;;;1.47;1.10;;;;;;;;;;6216038;23;20396;-60
2023/08/28 11:43:11;;;;;;;1.60;1.07;;;;;;;;;;6216337;23;20474;-63
2023/08/28 11:45:38;;;;;;;1.00;0.90;;;;;;;;;;6216294;23;20479;-61
2023/08/28 11:48:05;;;;;;;1.53;0.90;;;;;;;;;;6216034;23;20437;-61
2023/08/28 11:50:32;;;;;;;1.73;1.00;;;;;;;;;;6216354;23;20936;-61
2023/08/28 11:52:59;;;;;;;1.40;0.90;;;;;;;;;;6216528;23;20409;-62
2023/08/28 11:55:33;;;;;;;1.50;0.97;;;;;;;;;;6215857;23;20496;-60
2023/08/28 11:58:01;;;;;;;2.23;1.10;;;;;;;;;;6226320;23;20385;-62
2023/08/28 12:00:28;;;;;;;1.10;0.90;;;;;;;;;;6216459;23;20717;-61
2023/08/28 12:02:55;;;;;;;1.00;0.90;;;;;;;;;;6216046;23;20412;-62
2023/08/28 12:05:22;;;;;;;1.40;0.90;;;;;;;;;;6216404;23;20493;-61
2023/08/28 12:07:50;;;;;;;2.30;1.13;;;;;;;;;;6216251;23;20479;-59
2023/08/28 12:10:18;;;;;;;1.40;0.87;;;;;;;;;;6216211;23;20778;-60
2023/08/28 12:12:47;;;;;;;0.87;0.80;;;;;;;;;;6216318;23;20432;-60
2023/08/28 12:15:15;;;;;;;2.40;1.00;;;;;;;;;;6215544;23;20428;-60
2023/08/28 12:17:42;;;;;;;1.20;0.90;;;;;;;;;;6216215;23;20405;-59
2023/08/28 12:20:19;;;;;;;1.87;1.00;;;;;;;;;;6216154;23;20456;-59
2023/08/28 12:22:46;;;;;;;1.50;1.00;;;;;;;;;;6226300;23;20439;-60
2023/08/28 12:25:13;;;;;;;1.13;1.03;;;;;;;;;;6216482;23;20440;-59
2023/08/28 12:27:40;;;;;;;1.10;0.97;;;;;;;;;;6216401;23;20784;-59
2023/08/28 12:30:08;;;;;;;0.90;0.80;;;;;;;;;;6216108;23;20460;-59
2023/08/28 12:32:36;;;;;;;3.40;0.90;;;;;;;;;;6216293;23;20440;-61
2023/08/28 12:35:11;;;;;;;1.17;1.07;;;;;;;;;;6215953;23;20437;-59
2023/08/28 12:37:38;;;;;;;0.80;0.70;;;;;;;;;;6226098;23;20397;-62
2023/08/28 12:40:06;;;;;;;1.87;1.00;;;;;;;;;;6216036;23;20433;-60
2023/08/28 12:42:33;;;;;;;0.77;0.77;;;;;;;;;;6215692;23;20408;-60
2023/08/28 12:45:00;;;;;;;1.63;0.93;;;;;;;;;;6215927;23;20492;-62
2023/08/28 12:47:28;;;;;;;1.67;1.23;;;;;;;;;;6215969;23;20593;-58
2023/08/28 12:49:56;;;;;;;1.13;1.00;;;;;;;;;;6215321;23;21016;-61
2023/08/28 12:52:23;;;;;;;0.90;0.80;;;;;;;;;;6215957;23;20497;-62
2023/08/28 12:54:50;;;;;;;7.50;1.10;;;;;;;;;;6216077;23;20405;-59
2023/08/28 12:57:17;;;;;;;1.83;0.80;;;;;;;;;;6215810;23;20486;-59
2023/08/28 12:59:44;;;;;;;0.73;0.70;;;;;;;;;;6215909;23;20409;-59
2023/08/28 13:02:12;;;;;;;1.27;0.90;;;;;;;;;;6215689;23;20440;-59
2023/08/28 13:04:42;;;;;;;1.23;0.80;;;;;;;;;;6215076;23;20406;-60
2023/08/28 13:07:12;;;;;;;2.00;1.00;;;;;;;;;;6225538;23;20397;-60
2023/08/28 13:09:39;;;;;;;2.43;0.90;;;;;;;;;;6215583;23;20752;-59
2023/08/28 13:12:07;;;;;;;1.37;0.80;;;;;;;;;;6215831;23;20488;-60
2023/08/28 13:14:35;;;;;;;1.27;0.90;;;;;;;;;;6215752;23;20455;-59
2023/08/28 13:17:02;;;;;;;1.20;1.00;;;;;;;;;;6215659;23;20405;-60
2023/08/28 13:19:29;;;;;;;1.33;0.93;;;;;;;;;;6215592;23;20942;-60
2023/08/28 13:21:57;;;;;;;2.50;1.10;;;;;;;;;;6215774;23;20409;-60
2023/08/28 13:24:25;;;;;;;1.47;0.80;;;;;;;;;;6215611;23;20409;-60
2023/08/28 13:26:52;;;;;;;1.00;0.80;;;;;;;;;;6215401;23;20958;-60
2023/08/28 13:29:19;;;;;;;1.37;1.10;;;;;;;;;;6215607;23;20526;-60
2023/08/28 13:31:46;;;;;;;1.90;0.90;;;;;;;;;;6215542;23;20781;-60
2023/08/28 13:34:13;;;;;;;1.13;1.03;;;;;;;;;;6215140;23;20463;-60
2023/08/28 13:36:41;;;;;;;2.90;1.23;;;;;;;;;;6224978;23;20416;-60
2023/08/28 13:39:08;;;;;;;2.20;1.10;;;;;;;;;;6215434;23;20411;-60
2023/08/28 13:41:37;;;;;;;4.90;1.13;;;;;;;;;;6215461;23;20459;-60
2023/08/28 13:44:05;;;;;;;2.70;1.10;;;;;;;;;;6215220;23;20488;-60
2023/08/28 13:46:31;;;;;;;2.37;1.10;;;;;;;;;;6215401;23;20405;-60
2023/08/28 13:48:58;;;;;;;1.20;0.90;;;;;;;;;;6215429;23;20523;-60
2023/08/28 13:51:25;;;;;;;1.33;0.90;;;;;;;;;;6214837;23;20467;-60
2023/08/28 13:53:52;;;;;;;1.13;1.00;;;;;;;;;;6215345;23;20489;-60
2023/08/28 13:56:19;;;;;;;1.77;0.83;;;;;;;;;;6215355;23;20796;-60
2023/08/28 13:58:47;;;;;;;1.50;0.80;;;;;;;;;;6215402;23;20496;-60
2023/08/28 14:01:14;;;;;;;0.90;0.73;;;;;;;;;;6215214;23;20405;-60
2023/08/28 14:03:41;;;;;;;1.53;1.00;;;;;;;;;;6214908;23;20437;-60
2023/08/28 14:06:08;;;;;;;1.90;1.30;;;;;;;;;;6215425;23;20433;-60
2023/08/28 14:08:35;;;;;;;1.73;0.90;;;;;;;;;;6215110;23;20460;-60
2023/08/28 14:11:06;;;;;;;1.10;1.00;;;;;;;;;;6215264;23;20416;-60
2023/08/28 14:13:32;;;;;;;1.00;0.90;;;;;;;;;;6215100;23;20670;-60
2023/08/28 14:16:03;;;;;;;1.60;1.00;;;;;;;;;;6215003;23;20778;-60
2023/08/28 14:18:30;;;;;;;1.00;0.80;;;;;;;;;;6224180;23;20401;-60
2023/08/28 14:20:57;;;;;;;1.57;1.20;;;;;;;;;;6215258;23;20409;-60
2023/08/28 14:23:24;;;;;;;2.20;1.10;;;;;;;;;;6215143;23;20436;-60
2023/08/28 14:25:52;;;;;;;4.50;1.03;;;;;;;;;;6215117;23;20773;-60
2023/08/28 14:28:18;;;;;;;1.10;1.00;;;;;;;;;;6215146;23;20490;-60
2023/08/28 14:30:47;;;;;;;1.33;0.90;;;;;;;;;;6215137;23;20488;-60
2023/08/28 14:33:16;;;;;;;2.00;1.10;;;;;;;;;;6214947;23;20412;-60
2023/08/28 14:35:43;;;;;;;2.17;1.00;;;;;;;;;;6215069;23;20405;-60
2023/08/28 14:38:10;;;;;;;1.73;1.10;;;;;;;;;;6214653;23;20884;-60
2023/08/28 14:40:37;;;;;;;3.07;1.10;;;;;;;;;;6215049;23;20495;-60
2023/08/28 14:43:04;;;;;;;2.40;1.10;;;;;;;;;;6215085;23;20455;-60
2023/08/28 14:45:31;;;;;;;1.83;0.90;;;;;;;;;;6214905;23;20405;-61